createdAt,value
2019-05-09T00:01:08.732Z,37.06
2019-05-09T00:02:19.286Z,36.97
2019-05-09T00:03:33.438Z,37.06
2019-05-09T00:04:44.016Z,36.87
2019-05-09T00:05:56.681Z,36.87
2019-05-09T00:07:07.258Z,37.06
2019-05-09T00:08:19.200Z,37.26
2019-05-09T00:09:30.519Z,36.97
2019-05-09T00:10:44.843Z,36.97
2019-05-09T00:11:56.093Z,36.77
2019-05-09T00:13:06.403Z,37.06
2019-05-09T00:14:16.404Z,37.06
2019-05-09T00:15:26.440Z,36.97
2019-05-09T00:16:37.901Z,37.16
2019-05-09T00:17:48.677Z,37.26
2019-05-09T00:19:00.356Z,36.97
2019-05-09T00:20:10.429Z,37.26
2019-05-09T00:21:20.564Z,37.26
2019-05-09T00:22:33.234Z,37.35
2019-05-09T00:23:43.689Z,37.16
2019-05-09T00:24:53.898Z,37.16
2019-05-09T00:26:06.609Z,37.16
2019-05-09T00:27:18.544Z,37.06
2019-05-09T00:28:32.863Z,37.16
2019-05-09T00:29:46.655Z,37.26
2019-05-09T00:30:58.381Z,37.16
2019-05-09T00:32:08.438Z,37.16
2019-05-09T00:33:18.442Z,37.16
2019-05-09T00:34:28.543Z,37.26
2019-05-09T00:35:38.603Z,37.16
2019-05-09T00:36:49.008Z,37.16
2019-05-09T00:37:59.258Z,37.16
2019-05-09T00:39:08.860Z,37.16
2019-05-09T00:40:20.386Z,37.16
2019-05-09T00:41:33.007Z,37.26
2019-05-09T00:42:44.022Z,37.26
2019-05-09T00:43:56.516Z,37.16
2019-05-09T00:45:06.659Z,37.26
2019-05-09T00:46:17.967Z,37.16
2019-05-09T00:47:28.362Z,37.26
2019-05-09T00:48:37.524Z,37.35
2019-05-09T00:49:48.878Z,37.16
2019-05-09T00:50:59.193Z,37.16
2019-05-09T00:52:10.592Z,37.16
2019-05-09T00:53:23.215Z,37.26
2019-05-09T00:54:33.464Z,37.16
2019-05-09T00:55:45.802Z,37.26
2019-05-09T00:56:56.443Z,37.16
2019-05-09T00:58:07.824Z,37.16
2019-05-09T00:59:18.573Z,37.26
2019-05-09T01:00:28.858Z,37.26
2019-05-09T01:01:40.717Z,37.26
2019-05-09T01:02:50.856Z,37.16
2019-05-09T01:04:01.286Z,37.26
2019-05-09T01:05:13.190Z,37.26
2019-05-09T01:06:23.842Z,37.26
2019-05-09T01:07:33.612Z,37.16
2019-05-09T01:08:44.167Z,37.26
2019-05-09T01:09:56.553Z,37.26
2019-05-09T01:11:15.522Z,37.26
2019-05-09T01:12:27.169Z,37.16
2019-05-09T01:13:36.517Z,37.26
2019-05-09T01:14:46.378Z,37.16
2019-05-09T01:15:56.494Z,37.26
2019-05-09T01:17:07.474Z,37.26
2019-05-09T01:18:18.886Z,37.26
2019-05-09T01:19:28.754Z,37.26
2019-05-09T01:20:38.899Z,37.26
2019-05-09T01:21:48.559Z,37.26
2019-05-09T01:22:58.986Z,37.16
2019-05-09T01:24:10.603Z,37.26
2019-05-09T01:25:21.068Z,37.26
2019-05-09T01:26:33.307Z,37.35
2019-05-09T01:27:43.260Z,37.26
2019-05-09T01:28:53.753Z,37.16
2019-05-09T01:30:06.905Z,37.45
2019-05-09T01:31:18.228Z,37.26
2019-05-09T01:32:29.459Z,37.54
2019-05-09T01:33:43.710Z,37.45
2019-05-09T01:34:55.442Z,37.45
2019-05-09T01:36:06.727Z,37.26
2019-05-09T01:37:17.134Z,37.26
2019-05-09T01:38:28.731Z,37.26
2019-05-09T01:39:39.216Z,37.26
2019-05-09T01:40:48.827Z,37.26
2019-05-09T01:42:00.129Z,37.26
2019-05-09T01:43:10.944Z,37.45
2019-05-09T01:44:21.283Z,37.26
2019-05-09T01:45:30.926Z,37.45
2019-05-09T01:46:43.396Z,37.26
2019-05-09T01:47:53.750Z,37.45
2019-05-09T01:49:05.582Z,37.45
2019-05-09T01:50:16.703Z,37.45
2019-05-09T01:51:28.041Z,37.45
2019-05-09T01:52:38.974Z,37.45
2019-05-09T01:53:48.899Z,37.45
2019-05-09T01:55:00.318Z,37.45
2019-05-09T01:56:10.831Z,37.45
2019-05-09T01:57:23.220Z,37.45
2019-05-09T01:58:34.157Z,37.45
2019-05-09T01:59:46.857Z,37.45
2019-05-09T02:00:57.972Z,37.54
2019-05-09T02:02:10.992Z,37.45
2019-05-09T02:03:20.850Z,37.45
2019-05-09T02:04:30.550Z,37.54
2019-05-09T02:05:40.571Z,37.54
2019-05-09T02:06:50.591Z,37.45
2019-05-09T02:08:03.164Z,37.35
2019-05-09T02:09:14.008Z,37.64
2019-05-09T02:10:25.933Z,37.35
2019-05-09T02:11:45.586Z,37.54
2019-05-09T02:12:57.079Z,37.45
2019-05-09T02:14:08.373Z,37.54
2019-05-09T02:15:18.780Z,37.54
2019-05-09T02:16:28.622Z,37.35
2019-05-09T02:17:38.789Z,37.45
2019-05-09T02:19:09.293Z,37.35
2019-05-09T02:20:20.623Z,37.54
2019-05-09T02:21:31.316Z,37.45
2019-05-09T02:22:43.465Z,37.54
2019-05-09T02:23:53.668Z,37.45
2019-05-09T02:25:06.514Z,37.54
2019-05-09T02:26:16.077Z,37.54
2019-05-09T02:27:26.675Z,37.45
2019-05-09T02:28:37.871Z,37.45
2019-05-09T02:29:48.572Z,37.54
2019-05-09T02:30:59.174Z,37.54
2019-05-09T02:32:14.264Z,37.54
2019-05-09T02:33:27.523Z,37.54
2019-05-09T02:34:40.060Z,37.45
2019-05-09T02:36:01.749Z,37.54
2019-05-09T02:37:14.419Z,37.54
2019-05-09T02:38:28.666Z,37.54
2019-05-09T02:39:39.395Z,37.45
2019-05-09T02:40:51.983Z,37.54
2019-05-09T02:42:14.100Z,37.45
2019-05-09T02:43:28.993Z,37.64
2019-05-09T02:44:42.075Z,37.54
2019-05-09T02:45:55.332Z,37.64
2019-05-09T02:47:08.957Z,37.54
2019-05-09T02:48:21.161Z,37.64
2019-05-09T02:49:33.543Z,37.54
2019-05-09T02:50:43.675Z,37.45
2019-05-09T02:51:58.769Z,37.64
2019-05-09T02:53:11.655Z,37.54
2019-05-09T02:54:23.819Z,37.54
2019-05-09T02:55:40.809Z,37.54
2019-05-09T02:56:52.471Z,37.54
2019-05-09T02:58:03.223Z,37.64
2019-05-09T02:59:18.564Z,37.64
2019-05-09T03:00:31.963Z,37.54
2019-05-09T03:01:44.841Z,37.64
2019-05-09T03:02:59.498Z,37.64
2019-05-09T03:04:12.224Z,37.64
2019-05-09T03:05:24.392Z,37.45
2019-05-09T03:06:38.837Z,37.54
2019-05-09T03:07:51.742Z,37.54
2019-05-09T03:09:03.486Z,37.54
2019-05-09T03:10:19.145Z,37.54
2019-05-09T03:11:31.773Z,37.54
2019-05-09T03:12:43.838Z,37.64
2019-05-09T03:13:58.533Z,37.45
2019-05-09T03:15:11.846Z,37.74
2019-05-09T03:16:23.663Z,37.54
2019-05-09T03:17:38.578Z,37.74
2019-05-09T03:18:52.127Z,37.54
2019-05-09T03:20:03.566Z,37.35
2019-05-09T03:21:14.617Z,37.74
2019-05-09T03:22:28.852Z,37.74
2019-05-09T03:23:41.419Z,37.35
2019-05-09T03:24:53.557Z,37.64
2019-05-09T03:26:09.085Z,37.74
2019-05-09T03:27:21.884Z,37.64
2019-05-09T03:28:33.317Z,37.74
2019-05-09T03:29:48.836Z,37.64
2019-05-09T03:31:01.974Z,37.74
2019-05-09T03:32:14.661Z,37.64
2019-05-09T03:33:29.083Z,37.74
2019-05-09T03:34:47.764Z,37.83
2019-05-09T03:35:57.425Z,37.64
2019-05-09T03:37:08.433Z,37.64
2019-05-09T03:38:20.447Z,37.83
2019-05-09T03:39:31.031Z,37.83
2019-05-09T03:40:42.912Z,37.64
2019-05-09T03:41:54.491Z,37.74
2019-05-09T03:43:04.870Z,37.74
2019-05-09T03:44:15.119Z,37.74
2019-05-09T03:45:27.187Z,37.74
2019-05-09T03:46:38.363Z,37.64
2019-05-09T03:47:50.157Z,37.74
2019-05-09T03:49:00.891Z,37.74
2019-05-09T03:50:12.795Z,37.93
2019-05-09T03:51:24.388Z,37.74
2019-05-09T03:52:37.107Z,37.74
2019-05-09T03:53:48.356Z,37.74
2019-05-09T03:55:00.393Z,37.93
2019-05-09T03:56:12.536Z,37.74
2019-05-09T03:57:23.143Z,37.74
2019-05-09T03:58:33.355Z,37.74
2019-05-09T03:59:43.652Z,37.74
2019-05-09T04:00:54.956Z,37.74
2019-05-09T04:02:09.642Z,37.83
2019-05-09T04:03:22.775Z,37.83
2019-05-09T04:04:32.491Z,37.83
2019-05-09T04:06:02.494Z,37.74
2019-05-09T04:07:13.024Z,37.83
2019-05-09T04:08:23.676Z,37.64
2019-05-09T04:09:37.459Z,37.74
2019-05-09T04:10:52.777Z,37.74
2019-05-09T04:12:03.732Z,37.64
2019-05-09T04:13:14.656Z,37.74
2019-05-09T04:14:25.163Z,37.54
2019-05-09T04:15:37.811Z,37.83
2019-05-09T04:16:48.200Z,37.74
2019-05-09T04:18:00.402Z,37.64
2019-05-09T04:19:11.086Z,37.83
2019-05-09T04:20:22.608Z,37.64
2019-05-09T04:21:32.504Z,37.45
2019-05-09T04:22:43.572Z,37.64
2019-05-09T04:23:54.064Z,37.74
2019-05-09T04:25:05.472Z,37.74
2019-05-09T04:26:17.411Z,37.64
2019-05-09T04:27:29.525Z,37.83
2019-05-09T04:28:42.340Z,37.64
2019-05-09T04:29:52.009Z,37.64
2019-05-09T04:31:02.451Z,37.74
2019-05-09T04:32:12.643Z,37.64
2019-05-09T04:33:23.293Z,37.74
2019-05-09T04:34:34.750Z,37.64
2019-05-09T04:35:47.330Z,37.74
2019-05-09T04:36:57.574Z,37.74
2019-05-09T04:38:07.416Z,37.74
2019-05-09T04:39:24.060Z,37.74
2019-05-09T04:40:44.666Z,37.74
2019-05-09T04:42:02.951Z,37.54
2019-05-09T04:43:32.088Z,37.74
2019-05-09T04:44:49.499Z,37.72
2019-05-09T04:46:24.343Z,37.64
2019-05-09T04:47:39.274Z,37.64
2019-05-09T04:48:59.260Z,37.64
2019-05-09T04:50:15.277Z,37.64
2019-05-09T04:51:32.933Z,37.64
2019-05-09T04:52:47.468Z,37.64
2019-05-09T04:53:58.369Z,37.74
2019-05-09T04:55:10.350Z,37.64
2019-05-09T04:56:21.100Z,37.54
2019-05-09T04:57:32.857Z,37.74
2019-05-09T04:58:43.509Z,37.64
2019-05-09T04:59:57.323Z,37.64
2019-05-09T05:01:07.351Z,37.74
2019-05-09T05:02:18.221Z,37.64
2019-05-09T05:03:30.612Z,37.64
2019-05-09T05:04:39.976Z,37.83
2019-05-09T05:05:50.715Z,37.64
2019-05-09T05:07:00.973Z,37.64
2019-05-09T05:08:12.278Z,37.64
2019-05-09T05:09:23.995Z,37.64
2019-05-09T05:10:37.164Z,37.64
2019-05-09T05:11:49.492Z,37.74
2019-05-09T05:13:00.937Z,37.74
2019-05-09T05:14:30.499Z,37.64
2019-05-09T05:15:41.396Z,37.64
2019-05-09T05:17:06.137Z,37.64
2019-05-09T05:18:22.729Z,37.93
2019-05-09T05:19:36.128Z,37.54
2019-05-09T05:20:48.148Z,37.54
2019-05-09T05:22:00.551Z,37.54
2019-05-09T05:23:12.091Z,37.74
2019-05-09T05:24:23.288Z,37.74
2019-05-09T05:25:35.135Z,37.83
2019-05-09T05:26:45.405Z,37.83
2019-05-09T05:27:58.006Z,37.83
2019-05-09T05:29:08.395Z,37.54
2019-05-09T05:30:18.055Z,37.83
2019-05-09T05:31:28.490Z,37.83
2019-05-09T05:32:38.651Z,37.74
2019-05-09T05:33:53.960Z,37.83
2019-05-09T05:35:20.233Z,37.83
2019-05-09T05:36:31.317Z,37.83
2019-05-09T05:37:41.322Z,37.83
2019-05-09T05:38:52.458Z,37.93
2019-05-09T05:40:03.250Z,37.74
2019-05-09T05:41:15.423Z,37.74
2019-05-09T05:42:28.016Z,37.74
2019-05-09T05:43:47.640Z,37.83
2019-05-09T05:44:58.235Z,37.93
2019-05-09T05:46:10.394Z,37.83
2019-05-09T05:47:20.833Z,37.83
2019-05-09T05:48:34.398Z,37.83
2019-05-09T05:49:45.678Z,37.64
2019-05-09T05:50:57.756Z,37.74
2019-05-09T05:52:08.019Z,37.83
2019-05-09T05:53:18.254Z,37.83
2019-05-09T05:54:30.533Z,37.74
2019-05-09T05:55:42.737Z,37.74
2019-05-09T05:56:57.785Z,37.83
2019-05-09T05:58:08.541Z,37.74
2019-05-09T05:59:20.587Z,37.74
2019-05-09T06:00:31.293Z,37.74
2019-05-09T06:01:42.783Z,37.54
2019-05-09T06:02:55.002Z,37.74
2019-05-09T06:04:07.585Z,37.74
2019-05-09T06:05:18.624Z,37.83
2019-05-09T06:06:32.997Z,37.54
2019-05-09T06:07:44.890Z,37.64
2019-05-09T06:08:57.615Z,37.83
2019-05-09T06:10:08.200Z,37.74
2019-05-09T06:11:20.255Z,37.64
2019-05-09T06:12:31.022Z,37.93
2019-05-09T06:13:59.957Z,37.54
2019-05-09T06:15:21.468Z,37.74
2019-05-09T06:16:33.674Z,37.54
2019-05-09T06:17:45.237Z,37.93
2019-05-09T06:18:58.226Z,37.64
2019-05-09T06:20:11.215Z,37.54
2019-05-09T06:21:22.750Z,37.74
2019-05-09T06:22:33.308Z,37.74
2019-05-09T06:23:48.009Z,37.64
2019-05-09T06:24:58.215Z,37.93
2019-05-09T06:26:12.644Z,37.52
2019-05-09T06:27:23.793Z,37.74
2019-05-09T06:28:34.471Z,37.64
2019-05-09T06:29:44.804Z,37.64
2019-05-09T06:30:54.853Z,37.74
2019-05-09T06:32:07.214Z,37.64
2019-05-09T06:33:18.003Z,37.83
2019-05-09T06:34:30.249Z,37.93
2019-05-09T06:35:44.666Z,37.74
2019-05-09T06:36:58.424Z,37.93
2019-05-09T06:38:14.059Z,37.74
2019-05-09T06:39:28.453Z,37.83
2019-05-09T06:40:40.587Z,37.54
2019-05-09T06:41:52.769Z,37.64
2019-05-09T06:43:04.274Z,37.74
2019-05-09T06:44:22.039Z,37.54
2019-05-09T06:45:33.532Z,37.74
2019-05-09T06:46:50.458Z,37.74
2019-05-09T06:48:02.676Z,37.74
2019-05-09T06:49:31.831Z,37.64
2019-05-09T06:50:42.395Z,37.64
2019-05-09T06:51:53.115Z,37.54
2019-05-09T06:53:05.698Z,37.64
2019-05-09T06:54:17.423Z,37.64
2019-05-09T06:55:27.601Z,37.64
2019-05-09T06:56:41.062Z,37.64
2019-05-09T06:57:52.497Z,37.64
2019-05-09T06:59:03.460Z,37.64
2019-05-09T07:00:14.751Z,37.83
2019-05-09T07:01:25.255Z,37.54
2019-05-09T07:02:35.941Z,37.64
2019-05-09T07:03:48.034Z,37.74
2019-05-09T07:05:00.718Z,37.64
2019-05-09T07:06:12.295Z,37.83
2019-05-09T07:07:22.797Z,37.64
2019-05-09T07:08:33.938Z,37.74
2019-05-09T07:09:47.687Z,37.64
2019-05-09T07:10:58.422Z,37.64
2019-05-09T07:12:10.536Z,37.64
2019-05-09T07:13:21.024Z,37.74
2019-05-09T07:14:40.751Z,37.64
2019-05-09T07:15:53.822Z,37.64
2019-05-09T07:17:07.790Z,37.74
2019-05-09T07:18:18.421Z,37.64
2019-05-09T07:19:30.404Z,37.64
2019-05-09T07:20:41.314Z,37.64
2019-05-09T07:21:53.241Z,37.64
2019-05-09T07:23:05.289Z,37.74
2019-05-09T07:24:18.451Z,37.64
2019-05-09T07:25:30.165Z,37.74
2019-05-09T07:26:40.676Z,37.64
2019-05-09T07:27:50.704Z,37.64
2019-05-09T07:29:01.784Z,37.54
2019-05-09T07:30:12.483Z,37.54
2019-05-09T07:31:22.894Z,37.74
2019-05-09T07:32:33.462Z,37.74
2019-05-09T07:33:47.489Z,37.74
2019-05-09T07:34:57.931Z,37.74
2019-05-09T07:36:08.496Z,37.54
2019-05-09T07:37:18.636Z,37.74
2019-05-09T07:38:30.378Z,37.64
2019-05-09T07:39:40.865Z,37.74
2019-05-09T07:40:51.061Z,37.74
2019-05-09T07:42:02.966Z,37.74
2019-05-09T07:43:14.499Z,37.64
2019-05-09T07:44:25.424Z,37.54
2019-05-09T07:45:55.426Z,37.64
2019-05-09T07:47:07.207Z,37.64
2019-05-09T07:48:18.087Z,37.64
2019-05-09T07:49:28.389Z,37.64
2019-05-09T07:50:41.448Z,37.54
2019-05-09T07:51:53.001Z,37.64
2019-05-09T07:53:11.282Z,37.64
2019-05-09T07:54:29.180Z,37.64
2019-05-09T07:55:40.211Z,37.64
2019-05-09T07:56:52.307Z,37.54
2019-05-09T07:58:03.311Z,37.74
2019-05-09T07:59:18.062Z,37.54
2019-05-09T08:00:30.159Z,37.64
2019-05-09T08:01:41.462Z,37.74
2019-05-09T08:02:51.689Z,37.83
2019-05-09T08:04:03.113Z,37.83
2019-05-09T08:05:14.742Z,37.64
2019-05-09T08:06:24.663Z,37.74
2019-05-09T08:07:37.860Z,38.02
2019-05-09T08:08:49.852Z,38.02
2019-05-09T08:10:00.800Z,37.93
2019-05-09T08:11:13.554Z,38.04
2019-05-09T08:12:25.423Z,38.02
2019-05-09T08:13:35.803Z,38.02
2019-05-09T08:15:06.569Z,38.12
2019-05-09T08:16:27.242Z,38.02
2019-05-09T08:17:38.093Z,38.12
2019-05-09T08:18:48.368Z,38.22
2019-05-09T08:20:00.861Z,38.51
2019-05-09T08:21:10.810Z,38.22
2019-05-09T08:22:32.007Z,38.31
2019-05-09T08:24:00.534Z,38.51
2019-05-09T08:25:10.828Z,38.31
2019-05-09T08:26:23.351Z,38.6
2019-05-09T08:27:40.187Z,38.51
2019-05-09T08:28:51.241Z,38.31
2019-05-09T08:30:03.790Z,38.31
2019-05-09T08:31:17.609Z,38.31
2019-05-09T08:32:28.564Z,38.12
2019-05-09T08:33:40.871Z,38.22
2019-05-09T08:34:51.194Z,38.22
2019-05-09T08:36:02.904Z,38.12
2019-05-09T08:37:17.540Z,38.22
2019-05-09T08:38:28.170Z,38.31
2019-05-09T08:39:40.694Z,38.22
2019-05-09T08:40:51.097Z,38.22
2019-05-09T08:42:01.893Z,38.22
2019-05-09T08:43:13.573Z,38.12
2019-05-09T08:44:28.572Z,38.22
2019-05-09T08:45:44.782Z,38.22
2019-05-09T08:46:57.370Z,38.22
2019-05-09T08:48:09.101Z,38.12
2019-05-09T08:49:21.150Z,38.22
2019-05-09T08:50:31.294Z,38.12
2019-05-09T08:52:09.823Z,38.22
2019-05-09T08:53:24.733Z,38.31
2019-05-09T08:54:35.249Z,38.12
2019-05-09T08:55:47.264Z,38.31
2019-05-09T08:56:58.105Z,38.22
2019-05-09T08:58:10.705Z,38.22
2019-05-09T08:59:22.804Z,38.12
2019-05-09T09:00:35.166Z,38.31
2019-05-09T09:02:16.323Z,38.22
2019-05-09T09:03:31.038Z,38.43
2019-05-09T09:04:42.482Z,38.22
2019-05-09T09:05:53.986Z,38.12
2019-05-09T09:07:05.349Z,38.12
2019-05-09T09:08:18.009Z,38.24
2019-05-09T09:09:30.728Z,38.24
2019-05-09T09:10:42.516Z,38.24
2019-05-09T09:11:53.620Z,38.24
2019-05-09T09:13:05.838Z,38.04
2019-05-09T09:14:18.291Z,38.04
2019-05-09T09:16:07.451Z,37.95
2019-05-09T09:17:27.987Z,37.66
2019-05-09T09:18:38.696Z,37.77
2019-05-09T09:19:50.725Z,37.68
2019-05-09T09:21:02.739Z,37.87
2019-05-09T09:22:13.421Z,37.68
2019-05-09T09:23:40.407Z,37.68
2019-05-09T09:24:58.591Z,37.77
2019-05-09T09:26:10.715Z,37.68
2019-05-09T09:27:21.040Z,37.58
2019-05-09T09:28:32.260Z,37.58
2019-05-09T09:29:42.498Z,37.39
2019-05-09T09:30:53.597Z,37.29
2019-05-09T09:32:04.135Z,37.12
2019-05-09T09:33:17.583Z,37.21
2019-05-09T09:34:30.197Z,37.02
2019-05-09T09:35:42.659Z,37.02
2019-05-09T09:36:54.337Z,36.83
2019-05-09T09:38:17.663Z,37.02
2019-05-09T09:39:31.337Z,37.21
2019-05-09T09:40:51.294Z,37.12
2019-05-09T09:42:02.801Z,37.21
2019-05-09T09:43:14.101Z,36.94
2019-05-09T09:44:24.815Z,37.04
2019-05-09T09:45:37.744Z,36.83
2019-05-09T09:46:47.846Z,36.94
2019-05-09T09:47:59.059Z,37.04
2019-05-09T09:49:11.728Z,37.04
2019-05-09T09:50:23.094Z,36.94
2019-05-09T09:51:34.947Z,36.94
2019-05-09T09:52:48.771Z,36.94
2019-05-09T09:54:01.565Z,36.75
2019-05-09T09:55:13.685Z,36.85
2019-05-09T09:56:25.241Z,36.65
2019-05-09T09:57:37.682Z,36.55
2019-05-09T09:58:48.313Z,36.94
2019-05-09T10:00:00.986Z,36.85
2019-05-09T10:01:12.876Z,36.65
2019-05-09T10:02:23.139Z,36.75
2019-05-09T10:03:35.016Z,36.87
2019-05-09T10:04:44.458Z,36.57
2019-05-09T10:05:54.422Z,36.96
2019-05-09T10:07:04.675Z,36.57
2019-05-09T10:08:18.084Z,36.57
2019-05-09T10:09:27.776Z,36.77
2019-05-09T10:10:37.054Z,36.87
2019-05-09T10:11:48.264Z,36.77
2019-05-09T10:13:10.319Z,36.77
2019-05-09T10:14:21.179Z,36.96
2019-05-09T10:15:33.603Z,37.06
2019-05-09T10:16:47.513Z,37.06
2019-05-09T10:17:58.221Z,36.87
2019-05-09T10:19:10.831Z,36.96
2019-05-09T10:20:21.204Z,36.87
2019-05-09T10:21:31.820Z,37.06
2019-05-09T10:22:58.293Z,36.87
2019-05-09T10:24:28.093Z,37.06
2019-05-09T10:25:40.676Z,37.06
2019-05-09T10:26:50.385Z,36.77
2019-05-09T10:28:00.125Z,36.96
2019-05-09T10:29:11.577Z,36.96
2019-05-09T10:30:22.728Z,36.87
2019-05-09T10:31:33.734Z,36.87
2019-05-09T10:32:44.518Z,36.87
2019-05-09T10:33:55.045Z,36.77
2019-05-09T10:35:05.580Z,36.77
2019-05-09T10:36:15.931Z,36.67
2019-05-09T10:37:25.412Z,37.06
2019-05-09T10:38:34.867Z,36.67
2019-05-09T10:39:45.831Z,36.57
2019-05-09T10:41:00.548Z,36.57
2019-05-09T10:42:13.937Z,36.79
2019-05-09T10:43:38.940Z,36.69
2019-05-09T10:44:51.366Z,36.96
2019-05-09T10:46:01.162Z,36.88
2019-05-09T10:47:13.125Z,36.98
2019-05-09T10:48:28.259Z,36.98
2019-05-09T10:49:40.286Z,36.87
2019-05-09T10:51:03.315Z,36.98
2019-05-09T10:52:20.552Z,37.08
2019-05-09T10:53:30.772Z,36.98
2019-05-09T10:54:40.467Z,37.08
2019-05-09T10:55:50.351Z,37.08
2019-05-09T10:57:00.566Z,37.17
2019-05-09T10:58:10.705Z,36.88
2019-05-09T10:59:23.824Z,37.17
2019-05-09T11:00:33.557Z,37.06
2019-05-09T11:01:49.366Z,37.27
2019-05-09T11:03:00.964Z,37.25
2019-05-09T11:04:11.479Z,37.15
2019-05-09T11:05:23.040Z,37.17
2019-05-09T11:06:34.729Z,37.15
2019-05-09T11:07:45.890Z,37.08
2019-05-09T11:08:58.295Z,37.15
2019-05-09T11:10:29.925Z,37.17
2019-05-09T11:11:44.494Z,36.88
2019-05-09T11:12:55.591Z,37.08
2019-05-09T11:14:08.298Z,37.27
2019-05-09T11:15:40.296Z,36.98
2019-05-09T11:17:09.907Z,37.08
2019-05-09T11:18:31.377Z,37.27
2019-05-09T11:19:40.585Z,36.88
2019-05-09T11:20:51.262Z,36.88
2019-05-09T11:22:03.166Z,37.08
2019-05-09T11:23:15.732Z,37.17
2019-05-09T11:24:47.865Z,37.27
2019-05-09T11:26:00.873Z,37.27
2019-05-09T11:27:10.965Z,37.27
2019-05-09T11:28:21.264Z,37.27
2019-05-09T11:29:33.661Z,37.27
2019-05-09T11:30:43.865Z,37.27
2019-05-09T11:31:55.080Z,37.27
2019-05-09T11:33:07.777Z,37.27
2019-05-09T11:34:18.790Z,37.27
2019-05-09T11:35:28.383Z,37.27
2019-05-09T11:36:40.511Z,37.27
2019-05-09T11:37:52.382Z,37.27
2019-05-09T11:39:03.580Z,37.27
2019-05-09T11:40:17.820Z,37.27
2019-05-09T11:41:29.354Z,37.37
2019-05-09T11:42:41.288Z,37.27
2019-05-09T11:43:53.383Z,37.27
2019-05-09T11:45:04.847Z,37.27
2019-05-09T11:46:14.533Z,37.27
2019-05-09T11:47:46.054Z,37.37
2019-05-09T11:48:55.429Z,37.27
2019-05-09T11:50:08.738Z,37.27
2019-05-09T11:51:25.397Z,37.27
2019-05-09T11:52:38.240Z,37.37
2019-05-09T11:53:50.962Z,37.37
2019-05-09T11:55:02.774Z,37.27
2019-05-09T11:56:40.692Z,37.37
2019-05-09T11:57:52.817Z,37.37
2019-05-09T11:59:04.069Z,37.27
2019-05-09T12:00:15.057Z,37.37
2019-05-09T12:01:25.621Z,37.27
2019-05-09T12:02:38.437Z,37.37
2019-05-09T12:03:53.953Z,37.27
2019-05-09T12:05:05.241Z,37.27
2019-05-09T12:06:19.959Z,37.37
2019-05-09T12:07:31.456Z,37.27
2019-05-09T12:08:42.755Z,37.37
2019-05-09T12:09:53.349Z,37.27
2019-05-09T12:11:04.052Z,37.46
2019-05-09T12:12:15.574Z,37.46
2019-05-09T12:13:27.161Z,37.37
2019-05-09T12:14:38.137Z,37.46
2019-05-09T12:15:51.302Z,37.46
2019-05-09T12:17:03.505Z,37.37
2019-05-09T12:18:15.369Z,37.37
2019-05-09T12:19:24.824Z,37.56
2019-05-09T12:20:37.501Z,37.65
2019-05-09T12:21:50.481Z,37.65
2019-05-09T12:23:00.970Z,37.75
2019-05-09T12:24:13.090Z,37.56
2019-05-09T12:25:23.711Z,37.65
2019-05-09T12:26:38.653Z,37.65
2019-05-09T12:27:51.370Z,37.65
2019-05-09T12:29:03.528Z,37.85
2019-05-09T12:30:15.767Z,37.75
2019-05-09T12:31:28.705Z,37.56
2019-05-09T12:32:41.125Z,37.85
2019-05-09T12:33:50.862Z,37.75
2019-05-09T12:35:02.685Z,37.75
2019-05-09T12:36:13.892Z,37.65
2019-05-09T12:37:28.121Z,37.95
2019-05-09T12:38:38.834Z,37.65
2019-05-09T12:39:58.517Z,37.85
2019-05-09T12:41:10.307Z,37.63
2019-05-09T12:42:21.754Z,37.83
2019-05-09T12:43:34.357Z,37.65
2019-05-09T12:44:45.578Z,37.83
2019-05-09T12:45:59.621Z,37.73
2019-05-09T12:47:11.248Z,37.93
2019-05-09T12:48:22.144Z,37.93
2019-05-09T12:49:32.986Z,37.93
2019-05-09T12:50:43.861Z,37.93
2019-05-09T12:51:58.086Z,38.02
2019-05-09T12:53:07.639Z,38.21
2019-05-09T12:54:18.949Z,38.02
2019-05-09T12:55:30.567Z,38.12
2019-05-09T12:56:41.348Z,37.83
2019-05-09T12:57:53.249Z,37.93
2019-05-09T12:59:04.675Z,37.83
2019-05-09T13:00:15.917Z,37.75
2019-05-09T13:01:26.410Z,37.85
2019-05-09T13:02:35.863Z,37.73
2019-05-09T13:03:48.387Z,37.65
2019-05-09T13:04:57.756Z,37.63
2019-05-09T13:06:07.957Z,37.85
2019-05-09T13:07:22.660Z,37.75
2019-05-09T13:08:34.983Z,37.65
2019-05-09T13:09:52.183Z,37.75
2019-05-09T13:11:05.048Z,37.75
2019-05-09T13:12:18.004Z,37.75
2019-05-09T13:13:34.050Z,37.65
2019-05-09T13:14:51.080Z,37.95
2019-05-09T13:16:03.189Z,37.85
2019-05-09T13:17:20.354Z,37.85
2019-05-09T13:18:32.180Z,37.85
2019-05-09T13:19:42.539Z,37.85
2019-05-09T13:20:52.772Z,37.85
2019-05-09T13:22:03.338Z,37.85
2019-05-09T13:23:17.737Z,37.65
2019-05-09T13:24:28.302Z,37.65
2019-05-09T13:25:40.645Z,37.65
2019-05-09T13:26:53.310Z,37.65
2019-05-09T13:28:03.059Z,37.65
2019-05-09T13:29:13.353Z,37.75
2019-05-09T13:30:23.237Z,37.65
2019-05-09T13:31:39.124Z,37.75
2019-05-09T13:32:51.151Z,37.75
2019-05-09T13:34:01.043Z,37.95
2019-05-09T13:35:13.059Z,37.95
2019-05-09T13:36:25.005Z,38.04
2019-05-09T13:37:38.192Z,38.14
2019-05-09T13:39:04.883Z,38.14
2019-05-09T13:40:18.771Z,38.33
2019-05-09T13:41:31.949Z,38.14
2019-05-09T13:42:42.901Z,38.43
2019-05-09T13:44:05.110Z,38.53
2019-05-09T13:45:23.451Z,38.53
2019-05-09T13:46:38.522Z,38.33
2019-05-09T13:47:52.148Z,38.43
2019-05-09T13:49:15.482Z,38.33
2019-05-09T13:50:28.238Z,38.23
2019-05-09T13:51:59.955Z,38.31
2019-05-09T13:53:15.245Z,38.41
2019-05-09T13:54:28.481Z,38.12
2019-05-09T13:55:40.969Z,38.7
2019-05-09T13:57:01.395Z,38.6
2019-05-09T13:58:13.659Z,38.51
2019-05-09T13:59:29.982Z,38.6
2019-05-09T14:01:02.308Z,38.6
2019-05-09T14:02:15.086Z,38.6
2019-05-09T14:03:27.922Z,38.7
2019-05-09T14:04:39.436Z,38.6
2019-05-09T14:05:51.323Z,38.79
2019-05-09T14:07:03.598Z,38.7
2019-05-09T14:08:18.106Z,39.09
2019-05-09T14:09:31.359Z,38.99
2019-05-09T14:10:43.286Z,38.99
2019-05-09T14:11:58.558Z,38.99
2019-05-09T14:13:18.869Z,38.99
2019-05-09T14:14:33.214Z,39.28
2019-05-09T14:15:48.642Z,39.47
2019-05-09T14:17:01.747Z,39.37
2019-05-09T14:18:19.056Z,39.47
2019-05-09T14:19:46.645Z,39.37
2019-05-09T14:20:59.939Z,39.28
2019-05-09T14:22:10.791Z,39.37
2019-05-09T14:23:23.146Z,39.09
2019-05-09T14:25:14.223Z,39.28
2019-05-09T14:26:27.714Z,38.99
2019-05-09T14:27:39.996Z,38.99
2019-05-09T14:28:58.192Z,39.09
2019-05-09T14:30:10.473Z,38.89
2019-05-09T14:31:22.393Z,39.09
2019-05-09T14:32:42.520Z,39.09
2019-05-09T14:33:54.918Z,39.66
2019-05-09T14:35:04.643Z,38.99
2019-05-09T14:36:15.442Z,39.66
2019-05-09T14:37:25.118Z,38.99
2019-05-09T14:38:36.041Z,39.47
2019-05-09T14:40:04.065Z,39.57
2019-05-09T14:41:19.217Z,39.57
2019-05-09T14:42:31.521Z,39.57
2019-05-09T14:43:43.410Z,39.47
2019-05-09T14:44:55.352Z,39.57
2019-05-09T14:46:08.094Z,39.57
2019-05-09T14:47:20.005Z,39.47
2019-05-09T14:48:30.929Z,39.54
2019-05-09T14:49:49.708Z,39.36
2019-05-09T14:51:01.854Z,39.26
2019-05-09T14:52:12.421Z,39.45
2019-05-09T14:53:21.934Z,39.54
2019-05-09T14:54:33.311Z,39.45
2019-05-09T14:55:47.549Z,39.26
2019-05-09T14:56:58.305Z,39.36
2019-05-09T14:58:10.260Z,39.36
2019-05-09T14:59:21.439Z,39.16
2019-05-09T15:00:33.245Z,39.54
2019-05-09T15:01:49.216Z,39.45
2019-05-09T15:03:02.057Z,39.45
2019-05-09T15:04:13.233Z,39.64
2019-05-09T15:05:23.752Z,39.54
2019-05-09T15:06:35.270Z,39.54
2019-05-09T15:07:44.729Z,39.74
2019-05-09T15:09:01.888Z,39.54
2019-05-09T15:10:13.086Z,39.64
2019-05-09T15:11:23.786Z,39.54
2019-05-09T15:12:35.482Z,39.64
2019-05-09T15:13:47.688Z,39.64
2019-05-09T15:14:57.753Z,39.54
2019-05-09T15:16:08.827Z,39.84
2019-05-09T15:17:21.119Z,39.74
2019-05-09T15:18:32.900Z,39.84
2019-05-09T15:20:00.704Z,39.84
2019-05-09T15:21:11.758Z,39.84
2019-05-09T15:22:23.779Z,39.74
2019-05-09T15:23:35.803Z,39.84
2019-05-09T15:24:47.727Z,39.84
2019-05-09T15:25:58.167Z,39.64
2019-05-09T15:27:07.682Z,39.84
2019-05-09T15:28:17.639Z,39.84
2019-05-09T15:29:28.950Z,39.74
2019-05-09T15:30:41.597Z,39.74
2019-05-09T15:32:04.414Z,39.84
2019-05-09T15:33:20.914Z,39.84
2019-05-09T15:34:32.516Z,39.84
2019-05-09T15:35:42.968Z,39.74
2019-05-09T15:36:53.807Z,39.84
2019-05-09T15:38:08.273Z,39.84
2019-05-09T15:39:20.974Z,39.74
2019-05-09T15:40:32.538Z,39.74